Aviation Digital Data Service (ADDS)

Output produced by METARs form (0657 UTC 18 February 2018)
found at http://www.aviationweather.gov/adds/metars/
 
KTHV 180653Z AUTO VRB03KT 10SM OVC008 01/00 A3001 RMK AO2 SLP170 T00060000
KTHV 180621Z AUTO 23004KT 10SM OVC008 01/00 A3000 RMK AO2 T00060000
KTHV 180553Z AUTO 22005KT 8SM OVC006 01/00 A3000 RMK AO2 CIG 005V011 SLP164 60000 T00060000 10006 21006 56022
KTHV 180453Z AUTO 00000KT 3SM BR OVC007 M01/M01 A3000 RMK AO2 SLP167 T10061006 400331061
KTHV 180441Z AUTO 00000KT 3SM BR OVC007 M01/M01 A3001 RMK AO2 T10061006
KTHV 180421Z AUTO 00000KT 3SM BR OVC008 M01/M01 A3001 RMK AO2 T10061006
KTHV 180407Z AUTO 00000KT 2 1/2SM BR OVC008 M01/M01 A3002 RMK AO2 T10061006
KTHV 180353Z AUTO 00000KT 3SM BR OVC008 M01/M01 A3003 RMK AO2 SNB21E35 SLP174 P0000 T10061006
KTHV 180342Z AUTO 00000KT 3SM BR OVC009 M01/M01 A3003 RMK AO2 SNB21E35 P0000 T10061006
KTHV 180334Z AUTO 00000KT 2 1/2SM -SN BR OVC010 M01/M01 A3004 RMK AO2 SNB21 P0000 T10061006
KTHV 180253Z AUTO 00000KT 3SM BR OVC012 M01/M01 A3006 RMK AO2 SLP188 60000 T10061006 56025
KTHV 180228Z AUTO 00000KT 4SM BR OVC013 M01/M01 A3006 RMK AO2 T10061006
KTHV 180153Z AUTO 00000KT 4SM BR FEW015 OVC022 M01/M01 A3008 RMK AO2 SNE27 SLP193 P0000 T10061006
KTHV 180134Z AUTO 00000KT 3SM BR FEW004 SCT016 OVC024 M01/M01 A3008 RMK AO2 SNE27 P0000 T10061006
KTHV 180127Z AUTO 00000KT 2 1/2SM BR SCT004 OVC024 M01/M01 A3008 RMK AO2 SNE27 P0000 T10061006
KTHV 180122Z AUTO 00000KT 2 1/2SM -SN BR BKN004 OVC024 M01/M01 A3007 RMK AO2 P0000 T10061006
KTHV 180115Z AUTO 00000KT 2SM -SN BR BKN002 BKN026 OVC055 M01/M01 A3007 RMK AO2 PRESRR P0000 T10061006
KTHV 180102Z AUTO 12004KT 1 1/2SM -SN BR OVC002 M01/M01 A3005 RMK AO2 P0000 T10061006
KTHV 180053Z AUTO 11005KT 1SM -SN BR BKN002 OVC014 M01/M01 A3005 RMK AO2 SLP184 P0000 T10061006
KTHV 180041Z AUTO 12006KT 1SM -SN BR BKN002 OVC010 M01/M01 A3007 RMK AO2 PRESFR P0000 T10061006
KTHV 180030Z AUTO 11004KT 3/4SM -SN BR SCT004 OVC010 M01/M01 A3010 RMK AO2 PRESFR P0000 T10061006
KTHV 180019Z AUTO 12003KT 3/4SM -SN BR SCT004 OVC008 M01/M01 A3012 RMK AO2 P0000 T10061006
KTHV 172353Z AUTO 05003KT 1/2SM SN FZFG VV006 M01/M01 A3014 RMK AO2 SLP214 P0000 60000 T10061006 10028 21006 55010
KTHV 172334Z AUTO 06004KT 1/2SM SN FZFG VV005 M01/M01 A3013 RMK AO2 P0000 T10061006
KTHV 172318Z AUTO 08004KT 1/4SM +SN FZFG VV004 M01/M01 A3012 RMK AO2 P0000 T10061006
KTHV 172253Z AUTO 09005KT 1/2SM SN FZFG VV005 M01/M01 A3012 RMK AO2 SLP208 P0000 T10061006
KTHV 172246Z AUTO 08006KT 1/2SM SN FZFG VV006 M01/M01 A3012 RMK AO2 PRESFR P0000 T10061006
KTHV 172239Z AUTO 08005KT 1/2SM SN FZFG BKN008 OVC016 M01/M01 A3013 RMK AO2 P0000 T10061006
KTHV 172211Z AUTO 08004KT 1/2SM SN FG VV014 00/M01 A3016 RMK AO2 P0000 T00001006
KTHV 172153Z AUTO 13004KT 1/2SM SN FG VV015 00/M01 A3016 RMK AO2 SNB2057 SLP221 P0000 T00001006
KTHV 172146Z AUTO 13005KT 1/2SM SN FG VV016 00/M01 A3016 RMK AO2 SNB2057 P0000 T00001011
KTHV 172131Z AUTO 17006KT 1SM -SN BR FEW018 OVC029 01/M02 A3018 RMK AO2 SNB2057 P0000 T00061017
KTHV 172108Z AUTO VRB05KT 1 1/4SM -SN OVC037 01/M03 A3018 RMK AO2 SNB2057 P0000 T00111028
KTHV 172100Z AUTO 16005G15KT 2SM -SN OVC039 02/M03 A3018 RMK AO2 SNB2057 P0000 T00171033
KTHV 172053Z AUTO 16008G15KT 10SM BKN050 OVC065 02/M04 A3017 RMK AO2 SLP223 T00171039 58027
KTHV 171953Z AUTO 15009KT 10SM OVC055 03/M05 A3022 RMK AO2 SLP241 T00281050
KTHV 171853Z AUTO 15006KT 10SM OVC050 03/M04 A3025 RMK AO2 SLP251 T00281044
KTHV 171753Z AUTO VRB06KT 10SM CLR 03/M06 A3025 RMK AO2 SLP250 I6000 T00281056 10033 21061 58031
KTHV 171653Z AUTO 16007KT 10SM CLR 03/M05 A3030 RMK AO2 SLP268 T00281050
KTHV 171553Z AUTO 13009KT 10SM CLR 02/M06 A3032 RMK AO2 SLP275 T00221056
KTHV 171453Z AUTO VRB06KT 10SM CLR 01/M05 A3034 RMK AO2 SLP282 I3000 T00061050 58008
KTHV 171353Z AUTO 05005KT 10SM CLR 00/M06 A3036 RMK AO2 SLP287 T00001056
KTHV 171253Z AUTO 00000KT 10SM CLR M04/M04 A3036 RMK AO2 SLP290 I1000 T10391044
KTHV 171153Z AUTO 00000KT 10SM CLR M06/M06 A3036 RMK AO2 SLP290 70015 T10561061 10000 21061 51020
KTHV 171053Z AUTO 00000KT 10SM CLR M06/M06 A3036 RMK AO2 SLP289 T10561061
KTHV 170953Z AUTO 00000KT 10SM CLR M03/M06 A3033 RMK AO2 SLP279 T10331056
KTHV 170853Z AUTO 27003KT 10SM CLR M03/M06 A3031 RMK AO2 SLP268 T10331056 51017
KTHV 170753Z AUTO 31004KT 10SM CLR M03/M04 A3028 RMK AO2 SLP261 T10331044
KTHV 170653Z AUTO 00000KT 10SM CLR M02/M04 A3028 RMK AO2 SLP260 T10171039
KTHV 170553Z AUTO 26003KT 10SM CLR M01/M04 A3026 RMK AO2 SLP250 T10061044 10050 21011 51026
KTHV 170453Z AUTO 31007KT 10SM CLR 00/M04 A3023 RMK AO2 SLP242 T00001039 401610000
KTHV 170353Z AUTO 31008KT 10SM CLR 01/M04 A3021 RMK AO2 SLP234 T00111039
KTHV 170253Z AUTO 30006KT 10SM CLR 01/M03 A3018 RMK AO2 SLP223 T00111028 51044
KTHV 170153Z AUTO 32008G15KT 10SM CLR 03/M02 A3014 RMK AO2 SLP210 T00281022
KTHV 170053Z AUTO 31010KT 10SM CLR 04/M01 A3008 RMK AO2 SLP192 T00391011
KTHV 162353Z AUTO 30011G21KT 10SM CLR 04/M01 A3004 RMK AO2 SLP178 60007 T00441006 10122 20044 53063
KTHV 162253Z AUTO 29011G23KT 10SM SCT036 07/01 A2997 RMK AO2 SLP152 T00670011
KTHV 162153Z AUTO 30011KT 10SM FEW037 08/03 A2991 RMK AO2 SLP129 T00830028
KTHV 162053Z AUTO 30010KT 10SM FEW040 BKN047 BKN110 11/05 A2986 RMK AO2 PRESRR SLP113 60007 T01060050 51040
KTHV 161953Z AUTO 29011G17KT 10SM SCT034 OVC065 11/07 A2982 RMK AO2 RAE02 SLP099 P0000 T01060067